sensor_id;sensor_type;location;lat;lon;timestamp;P1;durP1;ratioP1;P2;durP2;ratioP2
20369;SDS011;10344;47.592;9.600;2024-03-08T00:02:09;26.07;;;16.50;;
20369;SDS011;10344;47.592;9.600;2024-03-08T00:04:38;25.20;;;16.88;;
20369;SDS011;10344;47.592;9.600;2024-03-08T00:07:04;23.83;;;16.33;;
20369;SDS011;10344;47.592;9.600;2024-03-08T00:09:32;26.60;;;16.95;;
20369;SDS011;10344;47.592;9.600;2024-03-08T00:11:57;25.42;;;16.80;;
20369;SDS011;10344;47.592;9.600;2024-03-08T00:14:23;27.03;;;17.13;;
20369;SDS011;10344;47.592;9.600;2024-03-08T00:16:49;24.98;;;16.58;;
20369;SDS011;10344;47.592;9.600;2024-03-08T00:19:14;23.87;;;16.60;;
20369;SDS011;10344;47.592;9.600;2024-03-08T00:21:40;25.03;;;16.23;;
20369;SDS011;10344;47.592;9.600;2024-03-08T00:24:07;23.67;;;16.52;;
20369;SDS011;10344;47.592;9.600;2024-03-08T00:26:33;24.67;;;16.48;;
20369;SDS011;10344;47.592;9.600;2024-03-08T00:28:58;24.17;;;15.88;;
20369;SDS011;10344;47.592;9.600;2024-03-08T00:31:26;23.10;;;16.17;;
20369;SDS011;10344;47.592;9.600;2024-03-08T00:33:56;22.42;;;15.55;;
20369;SDS011;10344;47.592;9.600;2024-03-08T00:36:22;23.13;;;15.43;;
20369;SDS011;10344;47.592;9.600;2024-03-08T00:38:51;23.85;;;15.93;;
20369;SDS011;10344;47.592;9.600;2024-03-08T00:41:19;24.75;;;16.23;;
20369;SDS011;10344;47.592;9.600;2024-03-08T00:43:44;22.73;;;15.98;;
20369;SDS011;10344;47.592;9.600;2024-03-08T00:46:12;23.10;;;16.02;;
20369;SDS011;10344;47.592;9.600;2024-03-08T00:48:40;22.00;;;15.90;;
20369;SDS011;10344;47.592;9.600;2024-03-08T00:51:08;22.90;;;15.20;;
20369;SDS011;10344;47.592;9.600;2024-03-08T00:53:34;22.65;;;15.02;;
20369;SDS011;10344;47.592;9.600;2024-03-08T00:55:59;22.90;;;15.33;;
20369;SDS011;10344;47.592;9.600;2024-03-08T00:58:25;21.15;;;14.77;;
20369;SDS011;10344;47.592;9.600;2024-03-08T01:00:50;22.33;;;14.73;;
20369;SDS011;10344;47.592;9.600;2024-03-08T01:03:18;21.88;;;14.63;;
20369;SDS011;10344;47.592;9.600;2024-03-08T01:05:44;21.73;;;14.40;;
20369;SDS011;10344;47.592;9.600;2024-03-08T01:08:10;22.27;;;14.73;;
20369;SDS011;10344;47.592;9.600;2024-03-08T01:10:39;19.40;;;14.18;;
20369;SDS011;10344;47.592;9.600;2024-03-08T01:13:04;21.60;;;14.60;;
20369;SDS011;10344;47.592;9.600;2024-03-08T01:15:32;20.70;;;14.70;;
20369;SDS011;10344;47.592;9.600;2024-03-08T01:17:58;21.15;;;15.00;;
20369;SDS011;10344;47.592;9.600;2024-03-08T01:20:23;23.57;;;15.63;;
20369;SDS011;10344;47.592;9.600;2024-03-08T01:22:49;21.40;;;14.50;;
20369;SDS011;10344;47.592;9.600;2024-03-08T01:25:15;21.55;;;14.23;;
20369;SDS011;10344;47.592;9.600;2024-03-08T01:27:40;21.47;;;14.00;;
20369;SDS011;10344;47.592;9.600;2024-03-08T01:30:06;22.52;;;14.85;;
20369;SDS011;10344;47.592;9.600;2024-03-08T01:32:34;21.83;;;13.70;;
20369;SDS011;10344;47.592;9.600;2024-03-08T01:35:03;20.55;;;14.48;;
20369;SDS011;10344;47.592;9.600;2024-03-08T01:37:29;22.42;;;14.57;;
20369;SDS011;10344;47.592;9.600;2024-03-08T01:39:54;18.87;;;13.60;;
20369;SDS011;10344;47.592;9.600;2024-03-08T01:42:22;22.50;;;14.63;;
20369;SDS011;10344;47.592;9.600;2024-03-08T01:44:48;21.40;;;13.93;;
20369;SDS011;10344;47.592;9.600;2024-03-08T01:47:14;18.75;;;13.27;;
20369;SDS011;10344;47.592;9.600;2024-03-08T01:49:39;19.70;;;12.80;;
20369;SDS011;10344;47.592;9.600;2024-03-08T01:52:07;19.67;;;13.38;;
20369;SDS011;10344;47.592;9.600;2024-03-08T01:54:33;20.63;;;14.03;;
20369;SDS011;10344;47.592;9.600;2024-03-08T01:56:59;19.95;;;12.98;;
20369;SDS011;10344;47.592;9.600;2024-03-08T01:59:27;20.05;;;12.93;;
20369;SDS011;10344;47.592;9.600;2024-03-08T02:01:55;20.77;;;14.18;;
20369;SDS011;10344;47.592;9.600;2024-03-08T02:04:25;19.27;;;13.70;;
20369;SDS011;10344;47.592;9.600;2024-03-08T02:06:51;19.40;;;12.93;;
20369;SDS011;10344;47.592;9.600;2024-03-08T02:09:17;21.70;;;14.20;;
20369;SDS011;10344;47.592;9.600;2024-03-08T02:11:42;20.38;;;13.95;;
20369;SDS011;10344;47.592;9.600;2024-03-08T02:14:08;20.03;;;13.00;;
20369;SDS011;10344;47.592;9.600;2024-03-08T02:16:36;19.50;;;13.07;;
20369;SDS011;10344;47.592;9.600;2024-03-08T02:19:02;19.27;;;13.43;;
20369;SDS011;10344;47.592;9.600;2024-03-08T02:21:28;18.08;;;12.68;;
20369;SDS011;10344;47.592;9.600;2024-03-08T02:23:54;18.83;;;13.20;;
20369;SDS011;10344;47.592;9.600;2024-03-08T02:26:20;19.40;;;12.93;;
20369;SDS011;10344;47.592;9.600;2024-03-08T02:28:48;18.65;;;13.18;;
20369;SDS011;10344;47.592;9.600;2024-03-08T02:31:14;20.00;;;13.10;;
20369;SDS011;10344;47.592;9.600;2024-03-08T02:33:42;20.13;;;13.73;;
20369;SDS011;10344;47.592;9.600;2024-03-08T02:36:12;20.45;;;13.95;;
20369;SDS011;10344;47.592;9.600;2024-03-08T02:38:38;21.10;;;13.55;;
20369;SDS011;10344;47.592;9.600;2024-03-08T02:41:08;19.02;;;13.43;;
20369;SDS011;10344;47.592;9.600;2024-03-08T02:43:35;19.70;;;13.53;;
20369;SDS011;10344;47.592;9.600;2024-03-08T02:46:00;19.20;;;13.32;;
20369;SDS011;10344;47.592;9.600;2024-03-08T02:48:26;18.43;;;12.90;;
20369;SDS011;10344;47.592;9.600;2024-03-08T02:50:52;20.47;;;13.53;;
20369;SDS011;10344;47.592;9.600;2024-03-08T02:53:18;19.33;;;13.85;;
20369;SDS011;10344;47.592;9.600;2024-03-08T02:55:49;18.85;;;13.05;;
20369;SDS011;10344;47.592;9.600;2024-03-08T02:58:17;18.77;;;13.10;;
20369;SDS011;10344;47.592;9.600;2024-03-08T03:00:43;19.77;;;13.52;;
20369;SDS011;10344;47.592;9.600;2024-03-08T03:03:09;21.52;;;14.18;;
20369;SDS011;10344;47.592;9.600;2024-03-08T03:05:35;22.50;;;14.27;;
20369;SDS011;10344;47.592;9.600;2024-03-08T03:08:00;22.08;;;14.50;;
20369;SDS011;10344;47.592;9.600;2024-03-08T03:10:26;21.03;;;14.63;;
20369;SDS011;10344;47.592;9.600;2024-03-08T03:12:52;22.10;;;14.15;;
20369;SDS011;10344;47.592;9.600;2024-03-08T03:15:20;23.88;;;14.98;;
20369;SDS011;10344;47.592;9.600;2024-03-08T03:17:46;21.43;;;14.73;;
20369;SDS011;10344;47.592;9.600;2024-03-08T03:20:15;21.23;;;14.43;;
20369;SDS011;10344;47.592;9.600;2024-03-08T03:22:47;19.70;;;14.30;;
20369;SDS011;10344;47.592;9.600;2024-03-08T03:25:17;22.42;;;14.48;;
20369;SDS011;10344;47.592;9.600;2024-03-08T03:27:48;21.40;;;14.15;;
20369;SDS011;10344;47.592;9.600;2024-03-08T03:30:14;21.27;;;14.25;;
20369;SDS011;10344;47.592;9.600;2024-03-08T03:32:49;19.03;;;13.60;;
20369;SDS011;10344;47.592;9.600;2024-03-08T03:35:17;22.38;;;15.05;;
20369;SDS011;10344;47.592;9.600;2024-03-08T03:37:45;20.48;;;14.55;;
20369;SDS011;10344;47.592;9.600;2024-03-08T03:40:21;20.35;;;13.65;;
20369;SDS011;10344;47.592;9.600;2024-03-08T03:42:48;19.52;;;14.23;;
20369;SDS011;10344;47.592;9.600;2024-03-08T03:45:14;21.52;;;14.48;;
20369;SDS011;10344;47.592;9.600;2024-03-08T03:47:44;21.17;;;13.93;;
20369;SDS011;10344;47.592;9.600;2024-03-08T03:50:10;19.83;;;13.70;;
20369;SDS011;10344;47.592;9.600;2024-03-08T03:52:36;21.20;;;14.30;;
20369;SDS011;10344;47.592;9.600;2024-03-08T03:55:02;22.27;;;14.93;;
20369;SDS011;10344;47.592;9.600;2024-03-08T03:57:29;20.27;;;14.05;;
20369;SDS011;10344;47.592;9.600;2024-03-08T03:59:55;19.63;;;13.27;;
20369;SDS011;10344;47.592;9.600;2024-03-08T04:02:23;19.83;;;13.48;;
20369;SDS011;10344;47.592;9.600;2024-03-08T04:04:51;21.00;;;14.05;;
20369;SDS011;10344;47.592;9.600;2024-03-08T04:07:19;21.35;;;13.80;;
20369;SDS011;10344;47.592;9.600;2024-03-08T04:09:45;21.25;;;13.60;;
20369;SDS011;10344;47.592;9.600;2024-03-08T04:12:11;19.83;;;13.40;;
20369;SDS011;10344;47.592;9.600;2024-03-08T04:14:38;20.35;;;13.57;;
20369;SDS011;10344;47.592;9.600;2024-03-08T04:17:06;20.23;;;13.20;;
20369;SDS011;10344;47.592;9.600;2024-03-08T04:19:33;20.58;;;13.93;;
20369;SDS011;10344;47.592;9.600;2024-03-08T04:22:01;22.00;;;13.15;;
20369;SDS011;10344;47.592;9.600;2024-03-08T04:24:27;20.38;;;12.85;;
20369;SDS011;10344;47.592;9.600;2024-03-08T04:26:53;20.53;;;13.50;;
20369;SDS011;10344;47.592;9.600;2024-03-08T04:29:19;20.00;;;13.52;;
20369;SDS011;10344;47.592;9.600;2024-03-08T04:31:45;21.38;;;13.77;;
20369;SDS011;10344;47.592;9.600;2024-03-08T04:34:10;20.53;;;13.70;;
20369;SDS011;10344;47.592;9.600;2024-03-08T04:36:36;21.60;;;14.05;;
20369;SDS011;10344;47.592;9.600;2024-03-08T04:39:02;20.87;;;13.63;;
20369;SDS011;10344;47.592;9.600;2024-03-08T04:41:28;21.25;;;13.65;;
20369;SDS011;10344;47.592;9.600;2024-03-08T04:43:55;19.70;;;13.48;;
20369;SDS011;10344;47.592;9.600;2024-03-08T04:46:22;20.42;;;13.50;;
20369;SDS011;10344;47.592;9.600;2024-03-08T04:48:50;21.10;;;14.13;;
20369;SDS011;10344;47.592;9.600;2024-03-08T04:51:16;20.33;;;13.75;;
20369;SDS011;10344;47.592;9.600;2024-03-08T04:53:43;22.60;;;14.50;;
20369;SDS011;10344;47.592;9.600;2024-03-08T04:56:11;22.38;;;14.75;;
20369;SDS011;10344;47.592;9.600;2024-03-08T04:58:39;20.77;;;14.48;;
20369;SDS011;10344;47.592;9.600;2024-03-08T05:01:05;20.40;;;14.07;;
20369;SDS011;10344;47.592;9.600;2024-03-08T05:03:31;21.88;;;14.68;;
20369;SDS011;10344;47.592;9.600;2024-03-08T05:05:56;20.55;;;14.05;;
20369;SDS011;10344;47.592;9.600;2024-03-08T05:08:24;21.33;;;14.32;;
20369;SDS011;10344;47.592;9.600;2024-03-08T05:10:52;19.38;;;13.05;;
20369;SDS011;10344;47.592;9.600;2024-03-08T05:13:18;19.45;;;13.90;;
20369;SDS011;10344;47.592;9.600;2024-03-08T05:15:47;21.60;;;14.10;;
20369;SDS011;10344;47.592;9.600;2024-03-08T05:18:16;19.33;;;13.55;;
20369;SDS011;10344;47.592;9.600;2024-03-08T05:20:41;21.23;;;13.75;;
20369;SDS011;10344;47.592;9.600;2024-03-08T05:23:09;19.58;;;12.95;;
20369;SDS011;10344;47.592;9.600;2024-03-08T05:25:35;22.73;;;13.93;;
20369;SDS011;10344;47.592;9.600;2024-03-08T05:28:03;21.20;;;14.52;;
20369;SDS011;10344;47.592;9.600;2024-03-08T05:30:29;20.55;;;14.07;;
20369;SDS011;10344;47.592;9.600;2024-03-08T05:32:54;19.30;;;13.70;;
20369;SDS011;10344;47.592;9.600;2024-03-08T05:35:21;22.05;;;14.63;;
20369;SDS011;10344;47.592;9.600;2024-03-08T05:37:47;19.95;;;13.50;;
20369;SDS011;10344;47.592;9.600;2024-03-08T05:40:15;19.50;;;13.47;;
20369;SDS011;10344;47.592;9.600;2024-03-08T05:42:41;20.63;;;14.07;;
20369;SDS011;10344;47.592;9.600;2024-03-08T05:45:06;19.63;;;13.37;;
20369;SDS011;10344;47.592;9.600;2024-03-08T05:47:32;21.97;;;14.37;;
20369;SDS011;10344;47.592;9.600;2024-03-08T05:49:58;18.65;;;13.15;;
20369;SDS011;10344;47.592;9.600;2024-03-08T05:52:25;20.13;;;13.45;;
20369;SDS011;10344;47.592;9.600;2024-03-08T05:54:52;20.90;;;14.02;;
20369;SDS011;10344;47.592;9.600;2024-03-08T05:57:18;20.93;;;13.97;;
20369;SDS011;10344;47.592;9.600;2024-03-08T05:59:44;20.75;;;13.73;;
20369;SDS011;10344;47.592;9.600;2024-03-08T06:02:09;21.87;;;14.37;;
20369;SDS011;10344;47.592;9.600;2024-03-08T06:04:35;25.23;;;17.02;;
20369;SDS011;10344;47.592;9.600;2024-03-08T06:07:01;27.00;;;17.67;;
20369;SDS011;10344;47.592;9.600;2024-03-08T06:09:28;25.23;;;16.10;;
20369;SDS011;10344;47.592;9.600;2024-03-08T06:11:56;22.55;;;15.65;;
20369;SDS011;10344;47.592;9.600;2024-03-08T06:14:22;21.73;;;14.32;;
20369;SDS011;10344;47.592;9.600;2024-03-08T06:16:50;21.10;;;14.40;;
20369;SDS011;10344;47.592;9.600;2024-03-08T06:19:16;22.17;;;14.10;;
20369;SDS011;10344;47.592;9.600;2024-03-08T06:21:44;21.17;;;14.80;;
20369;SDS011;10344;47.592;9.600;2024-03-08T06:24:10;22.23;;;14.02;;
20369;SDS011;10344;47.592;9.600;2024-03-08T06:26:36;21.83;;;14.27;;
20369;SDS011;10344;47.592;9.600;2024-03-08T06:29:04;19.50;;;13.82;;
20369;SDS011;10344;47.592;9.600;2024-03-08T06:31:31;20.08;;;13.77;;
20369;SDS011;10344;47.592;9.600;2024-03-08T06:34:03;21.55;;;13.98;;
20369;SDS011;10344;47.592;9.600;2024-03-08T06:36:32;21.23;;;14.20;;
20369;SDS011;10344;47.592;9.600;2024-03-08T06:39:00;20.08;;;14.38;;
20369;SDS011;10344;47.592;9.600;2024-03-08T06:41:26;19.00;;;13.50;;
20369;SDS011;10344;47.592;9.600;2024-03-08T06:43:52;22.00;;;13.82;;
20369;SDS011;10344;47.592;9.600;2024-03-08T06:46:22;18.90;;;13.27;;
20369;SDS011;10344;47.592;9.600;2024-03-08T06:48:50;20.27;;;13.57;;
20369;SDS011;10344;47.592;9.600;2024-03-08T06:51:15;19.63;;;13.90;;
20369;SDS011;10344;47.592;9.600;2024-03-08T06:53:41;19.77;;;13.45;;
20369;SDS011;10344;47.592;9.600;2024-03-08T06:56:07;22.05;;;13.90;;
20369;SDS011;10344;47.592;9.600;2024-03-08T06:58:33;19.95;;;13.52;;
20369;SDS011;10344;47.592;9.600;2024-03-08T07:00:58;20.27;;;13.50;;
20369;SDS011;10344;47.592;9.600;2024-03-08T07:03:26;19.20;;;13.25;;
20369;SDS011;10344;47.592;9.600;2024-03-08T07:05:52;19.73;;;13.20;;
20369;SDS011;10344;47.592;9.600;2024-03-08T07:08:21;20.75;;;13.73;;
20369;SDS011;10344;47.592;9.600;2024-03-08T07:10:48;20.23;;;13.55;;
20369;SDS011;10344;47.592;9.600;2024-03-08T07:13:14;21.88;;;13.52;;
20369;SDS011;10344;47.592;9.600;2024-03-08T07:15:43;20.57;;;13.50;;
20369;SDS011;10344;47.592;9.600;2024-03-08T07:18:10;21.15;;;13.27;;
20369;SDS011;10344;47.592;9.600;2024-03-08T07:20:39;19.65;;;13.38;;
20369;SDS011;10344;47.592;9.600;2024-03-08T07:23:08;19.77;;;13.57;;
20369;SDS011;10344;47.592;9.600;2024-03-08T07:25:35;18.10;;;12.77;;
20369;SDS011;10344;47.592;9.600;2024-03-08T07:28:01;21.13;;;13.40;;
20369;SDS011;10344;47.592;9.600;2024-03-08T07:30:26;18.43;;;12.53;;
20369;SDS011;10344;47.592;9.600;2024-03-08T07:33:10;18.88;;;13.05;;
20369;SDS011;10344;47.592;9.600;2024-03-08T07:35:40;22.08;;;13.82;;
20369;SDS011;10344;47.592;9.600;2024-03-08T07:38:07;20.90;;;13.70;;
20369;SDS011;10344;47.592;9.600;2024-03-08T07:40:42;19.50;;;13.10;;
20369;SDS011;10344;47.592;9.600;2024-03-08T07:43:10;20.10;;;12.98;;
20369;SDS011;10344;47.592;9.600;2024-03-08T07:45:37;21.10;;;13.93;;
20369;SDS011;10344;47.592;9.600;2024-03-08T07:48:03;21.15;;;13.40;;
20369;SDS011;10344;47.592;9.600;2024-03-08T07:50:34;18.98;;;12.55;;
20369;SDS011;10344;47.592;9.600;2024-03-08T07:53:09;18.42;;;12.70;;
20369;SDS011;10344;47.592;9.600;2024-03-08T07:55:35;19.75;;;13.13;;
20369;SDS011;10344;47.592;9.600;2024-03-08T07:58:04;18.40;;;12.55;;
20369;SDS011;10344;47.592;9.600;2024-03-08T08:00:31;19.17;;;12.98;;
20369;SDS011;10344;47.592;9.600;2024-03-08T08:02:56;18.80;;;12.87;;
20369;SDS011;10344;47.592;9.600;2024-03-08T08:05:22;20.55;;;12.68;;
20369;SDS011;10344;47.592;9.600;2024-03-08T08:07:48;18.30;;;12.90;;
20369;SDS011;10344;47.592;9.600;2024-03-08T08:10:14;18.17;;;12.60;;
20369;SDS011;10344;47.592;9.600;2024-03-08T08:12:53;18.00;;;12.63;;
20369;SDS011;10344;47.592;9.600;2024-03-08T08:15:19;17.95;;;12.13;;
20369;SDS011;10344;47.592;9.600;2024-03-08T08:17:47;17.33;;;12.23;;
20369;SDS011;10344;47.592;9.600;2024-03-08T08:20:13;18.27;;;12.38;;
20369;SDS011;10344;47.592;9.600;2024-03-08T08:22:41;19.58;;;12.13;;
20369;SDS011;10344;47.592;9.600;2024-03-08T08:25:08;17.30;;;12.05;;
20369;SDS011;10344;47.592;9.600;2024-03-08T08:27:34;17.63;;;12.07;;
20369;SDS011;10344;47.592;9.600;2024-03-08T08:30:03;17.55;;;11.70;;
20369;SDS011;10344;47.592;9.600;2024-03-08T08:32:33;16.13;;;11.00;;
20369;SDS011;10344;47.592;9.600;2024-03-08T08:35:12;16.77;;;11.02;;
20369;SDS011;10344;47.592;9.600;2024-03-08T08:37:38;15.80;;;10.93;;
20369;SDS011;10344;47.592;9.600;2024-03-08T08:40:04;17.13;;;11.02;;
20369;SDS011;10344;47.592;9.600;2024-03-08T08:42:34;15.88;;;11.45;;
20369;SDS011;10344;47.592;9.600;2024-03-08T08:45:04;16.10;;;11.00;;
20369;SDS011;10344;47.592;9.600;2024-03-08T08:47:35;14.77;;;10.52;;
20369;SDS011;10344;47.592;9.600;2024-03-08T08:50:07;14.60;;;10.50;;
20369;SDS011;10344;47.592;9.600;2024-03-08T08:52:35;14.95;;;10.43;;
20369;SDS011;10344;47.592;9.600;2024-03-08T08:55:00;15.15;;;10.32;;
20369;SDS011;10344;47.592;9.600;2024-03-08T08:57:28;15.10;;;10.93;;
20369;SDS011;10344;47.592;9.600;2024-03-08T08:59:54;14.57;;;10.83;;
20369;SDS011;10344;47.592;9.600;2024-03-08T09:02:20;14.00;;;9.93;;
20369;SDS011;10344;47.592;9.600;2024-03-08T09:04:46;13.47;;;9.73;;
20369;SDS011;10344;47.592;9.600;2024-03-08T09:07:13;15.25;;;10.55;;
20369;SDS011;10344;47.592;9.600;2024-03-08T09:09:42;14.77;;;10.57;;
20369;SDS011;10344;47.592;9.600;2024-03-08T09:12:08;14.23;;;9.90;;
20369;SDS011;10344;47.592;9.600;2024-03-08T09:14:36;14.25;;;10.32;;
20369;SDS011;10344;47.592;9.600;2024-03-08T09:17:02;13.40;;;10.13;;
20369;SDS011;10344;47.592;9.600;2024-03-08T09:19:28;14.50;;;9.82;;
20369;SDS011;10344;47.592;9.600;2024-03-08T09:21:53;12.52;;;9.27;;
20369;SDS011;10344;47.592;9.600;2024-03-08T09:24:21;14.32;;;9.70;;
20369;SDS011;10344;47.592;9.600;2024-03-08T09:26:46;14.23;;;9.77;;
20369;SDS011;10344;47.592;9.600;2024-03-08T09:29:12;13.80;;;9.43;;
20369;SDS011;10344;47.592;9.600;2024-03-08T09:31:38;13.77;;;9.60;;
20369;SDS011;10344;47.592;9.600;2024-03-08T09:34:03;13.83;;;9.93;;
20369;SDS011;10344;47.592;9.600;2024-03-08T09:36:29;13.07;;;8.73;;
20369;SDS011;10344;47.592;9.600;2024-03-08T09:38:57;12.20;;;9.05;;
20369;SDS011;10344;47.592;9.600;2024-03-08T09:41:25;12.82;;;9.20;;
20369;SDS011;10344;47.592;9.600;2024-03-08T09:43:52;13.00;;;8.82;;
20369;SDS011;10344;47.592;9.600;2024-03-08T09:46:18;14.13;;;9.70;;
20369;SDS011;10344;47.592;9.600;2024-03-08T09:48:47;12.75;;;9.27;;
20369;SDS011;10344;47.592;9.600;2024-03-08T09:51:13;13.60;;;9.00;;
20369;SDS011;10344;47.592;9.600;2024-03-08T09:53:40;13.88;;;9.52;;
20369;SDS011;10344;47.592;9.600;2024-03-08T09:56:09;12.15;;;8.73;;
20369;SDS011;10344;47.592;9.600;2024-03-08T09:58:37;11.17;;;8.23;;
20369;SDS011;10344;47.592;9.600;2024-03-08T10:01:18;11.30;;;8.45;;
20369;SDS011;10344;47.592;9.600;2024-03-08T10:03:46;11.38;;;8.50;;
20369;SDS011;10344;47.592;9.600;2024-03-08T10:06:13;12.55;;;8.35;;
20369;SDS011;10344;47.592;9.600;2024-03-08T10:08:39;13.25;;;9.30;;
20369;SDS011;10344;47.592;9.600;2024-03-08T10:11:04;12.25;;;9.23;;
20369;SDS011;10344;47.592;9.600;2024-03-08T10:13:30;12.00;;;8.90;;
20369;SDS011;10344;47.592;9.600;2024-03-08T10:16:01;12.38;;;9.02;;
20369;SDS011;10344;47.592;9.600;2024-03-08T10:18:27;11.60;;;8.45;;
20369;SDS011;10344;47.592;9.600;2024-03-08T10:21:03;11.10;;;8.57;;
20369;SDS011;10344;47.592;9.600;2024-03-08T10:23:35;10.35;;;8.07;;
20369;SDS011;10344;47.592;9.600;2024-03-08T10:26:11;11.38;;;8.82;;
20369;SDS011;10344;47.592;9.600;2024-03-08T10:28:39;11.05;;;8.73;;
20369;SDS011;10344;47.592;9.600;2024-03-08T10:31:06;11.27;;;8.07;;
20369;SDS011;10344;47.592;9.600;2024-03-08T10:33:32;10.63;;;8.27;;
20369;SDS011;10344;47.592;9.600;2024-03-08T10:35:58;11.23;;;8.07;;
20369;SDS011;10344;47.592;9.600;2024-03-08T10:38:24;10.70;;;7.57;;
20369;SDS011;10344;47.592;9.600;2024-03-08T10:40:51;9.73;;;7.70;;
20369;SDS011;10344;47.592;9.600;2024-03-08T10:43:22;10.70;;;8.40;;
20369;SDS011;10344;47.592;9.600;2024-03-08T10:46:02;10.73;;;8.18;;
20369;SDS011;10344;47.592;9.600;2024-03-08T10:48:49;12.35;;;8.65;;
20369;SDS011;10344;47.592;9.600;2024-03-08T10:51:17;12.93;;;8.43;;
20369;SDS011;10344;47.592;9.600;2024-03-08T10:53:46;10.65;;;8.50;;
20369;SDS011;10344;47.592;9.600;2024-03-08T10:56:14;10.15;;;8.40;;
20369;SDS011;10344;47.592;9.600;2024-03-08T10:58:40;10.23;;;8.10;;
20369;SDS011;10344;47.592;9.600;2024-03-08T11:01:06;11.68;;;8.20;;
20369;SDS011;10344;47.592;9.600;2024-03-08T11:06:17;11.00;;;8.43;;
20369;SDS011;10344;47.592;9.600;2024-03-08T11:08:47;10.65;;;7.85;;
20369;SDS011;10344;47.592;9.600;2024-03-08T11:11:28;10.35;;;8.07;;
20369;SDS011;10344;47.592;9.600;2024-03-08T11:13:55;9.38;;;7.20;;
20369;SDS011;10344;47.592;9.600;2024-03-08T11:18:50;8.43;;;6.90;;
20369;SDS011;10344;47.592;9.600;2024-03-08T11:21:19;9.95;;;7.65;;
20369;SDS011;10344;47.592;9.600;2024-03-08T11:24:02;10.53;;;7.40;;
20369;SDS011;10344;47.592;9.600;2024-03-08T11:26:32;8.73;;;7.15;;
20369;SDS011;10344;47.592;9.600;2024-03-08T11:32:04;10.82;;;7.78;;
20369;SDS011;10344;47.592;9.600;2024-03-08T11:34:41;9.18;;;7.50;;
20369;SDS011;10344;47.592;9.600;2024-03-08T11:37:11;10.18;;;7.70;;
20369;SDS011;10344;47.592;9.600;2024-03-08T11:39:46;11.15;;;7.93;;
20369;SDS011;10344;47.592;9.600;2024-03-08T11:42:26;8.95;;;7.43;;
20369;SDS011;10344;47.592;9.600;2024-03-08T11:44:52;9.07;;;7.65;;
20369;SDS011;10344;47.592;9.600;2024-03-08T11:47:20;11.52;;;8.00;;
20369;SDS011;10344;47.592;9.600;2024-03-08T11:49:46;9.70;;;7.60;;
20369;SDS011;10344;47.592;9.600;2024-03-08T11:52:15;7.78;;;6.65;;
20369;SDS011;10344;47.592;9.600;2024-03-08T11:54:49;11.03;;;7.67;;
20369;SDS011;10344;47.592;9.600;2024-03-08T11:57:19;10.45;;;8.13;;
20369;SDS011;10344;47.592;9.600;2024-03-08T11:59:50;8.88;;;7.57;;
20369;SDS011;10344;47.592;9.600;2024-03-08T12:02:16;10.48;;;7.90;;
20369;SDS011;10344;47.592;9.600;2024-03-08T12:04:44;10.80;;;8.35;;
20369;SDS011;10344;47.592;9.600;2024-03-08T12:07:11;11.00;;;8.27;;
20369;SDS011;10344;47.592;9.600;2024-03-08T12:09:39;10.80;;;8.70;;
20369;SDS011;10344;47.592;9.600;2024-03-08T12:12:06;11.07;;;9.05;;
20369;SDS011;10344;47.592;9.600;2024-03-08T12:14:33;11.05;;;9.30;;
20369;SDS011;10344;47.592;9.600;2024-03-08T12:16:59;12.98;;;9.63;;
20369;SDS011;10344;47.592;9.600;2024-03-08T12:19:28;12.88;;;8.98;;
20369;SDS011;10344;47.592;9.600;2024-03-08T12:21:56;12.18;;;9.00;;
20369;SDS011;10344;47.592;9.600;2024-03-08T12:24:31;13.02;;;9.50;;
20369;SDS011;10344;47.592;9.600;2024-03-08T12:27:00;12.75;;;10.18;;
20369;SDS011;10344;47.592;9.600;2024-03-08T12:29:42;14.25;;;9.85;;
20369;SDS011;10344;47.592;9.600;2024-03-08T12:32:08;11.73;;;9.02;;
20369;SDS011;10344;47.592;9.600;2024-03-08T12:34:36;12.60;;;9.18;;
20369;SDS011;10344;47.592;9.600;2024-03-08T12:37:02;11.63;;;9.43;;
20369;SDS011;10344;47.592;9.600;2024-03-08T12:39:32;11.75;;;9.38;;
20369;SDS011;10344;47.592;9.600;2024-03-08T12:41:58;12.85;;;9.65;;
20369;SDS011;10344;47.592;9.600;2024-03-08T12:44:28;13.32;;;9.80;;
20369;SDS011;10344;47.592;9.600;2024-03-08T12:46:56;14.35;;;10.32;;
20369;SDS011;10344;47.592;9.600;2024-03-08T12:49:23;13.68;;;9.95;;
20369;SDS011;10344;47.592;9.600;2024-03-08T12:51:50;13.43;;;10.07;;
20369;SDS011;10344;47.592;9.600;2024-03-08T12:54:17;14.32;;;10.70;;
20369;SDS011;10344;47.592;9.600;2024-03-08T12:56:42;13.45;;;10.35;;
20369;SDS011;10344;47.592;9.600;2024-03-08T12:59:08;12.77;;;9.52;;
20369;SDS011;10344;47.592;9.600;2024-03-08T13:01:35;14.63;;;10.27;;
20369;SDS011;10344;47.592;9.600;2024-03-08T13:04:03;13.38;;;10.63;;
20369;SDS011;10344;47.592;9.600;2024-03-08T13:06:31;13.47;;;9.73;;
20369;SDS011;10344;47.592;9.600;2024-03-08T13:08:59;12.65;;;10.23;;
20369;SDS011;10344;47.592;9.600;2024-03-08T13:11:30;14.68;;;10.23;;
20369;SDS011;10344;47.592;9.600;2024-03-08T13:14:01;13.57;;;10.27;;
20369;SDS011;10344;47.592;9.600;2024-03-08T13:16:32;13.48;;;9.60;;
20369;SDS011;10344;47.592;9.600;2024-03-08T13:18:59;14.85;;;10.45;;
20369;SDS011;10344;47.592;9.600;2024-03-08T13:21:25;13.87;;;10.43;;
20369;SDS011;10344;47.592;9.600;2024-03-08T13:23:51;15.43;;;11.00;;
20369;SDS011;10344;47.592;9.600;2024-03-08T13:26:18;14.35;;;10.25;;
20369;SDS011;10344;47.592;9.600;2024-03-08T13:28:50;14.52;;;11.23;;
20369;SDS011;10344;47.592;9.600;2024-03-08T13:31:19;14.30;;;11.05;;
20369;SDS011;10344;47.592;9.600;2024-03-08T13:33:45;14.45;;;10.75;;
20369;SDS011;10344;47.592;9.600;2024-03-08T13:36:12;13.18;;;9.98;;
20369;SDS011;10344;47.592;9.600;2024-03-08T13:38:44;14.48;;;10.60;;
20369;SDS011;10344;47.592;9.600;2024-03-08T13:41:13;15.48;;;11.05;;
20369;SDS011;10344;47.592;9.600;2024-03-08T13:43:41;13.57;;;10.25;;
20369;SDS011;10344;47.592;9.600;2024-03-08T13:46:11;15.65;;;11.07;;
20369;SDS011;10344;47.592;9.600;2024-03-08T13:48:37;14.70;;;10.93;;
20369;SDS011;10344;47.592;9.600;2024-03-08T13:51:04;15.73;;;10.90;;
20369;SDS011;10344;47.592;9.600;2024-03-08T13:53:31;14.57;;;10.95;;
20369;SDS011;10344;47.592;9.600;2024-03-08T13:55:58;13.98;;;11.13;;
20369;SDS011;10344;47.592;9.600;2024-03-08T13:58:26;14.93;;;10.60;;
20369;SDS011;10344;47.592;9.600;2024-03-08T14:00:52;13.65;;;9.93;;
20369;SDS011;10344;47.592;9.600;2024-03-08T14:03:18;14.27;;;10.23;;
20369;SDS011;10344;47.592;9.600;2024-03-08T14:05:43;13.90;;;9.88;;
20369;SDS011;10344;47.592;9.600;2024-03-08T14:08:10;13.32;;;10.02;;
20369;SDS011;10344;47.592;9.600;2024-03-08T14:10:37;13.03;;;9.83;;
20369;SDS011;10344;47.592;9.600;2024-03-08T14:13:03;12.30;;;9.82;;
20369;SDS011;10344;47.592;9.600;2024-03-08T14:15:33;12.90;;;9.63;;
20369;SDS011;10344;47.592;9.600;2024-03-08T14:18:00;14.35;;;10.18;;
20369;SDS011;10344;47.592;9.600;2024-03-08T14:20:26;13.13;;;9.47;;
20369;SDS011;10344;47.592;9.600;2024-03-08T14:22:55;15.25;;;10.70;;
20369;SDS011;10344;47.592;9.600;2024-03-08T14:25:21;13.65;;;9.93;;
20369;SDS011;10344;47.592;9.600;2024-03-08T14:27:50;12.45;;;10.00;;
20369;SDS011;10344;47.592;9.600;2024-03-08T14:30:18;12.55;;;10.05;;
20369;SDS011;10344;47.592;9.600;2024-03-08T14:33:06;14.55;;;10.23;;
20369;SDS011;10344;47.592;9.600;2024-03-08T14:35:36;13.65;;;10.25;;
20369;SDS011;10344;47.592;9.600;2024-03-08T14:38:02;13.63;;;9.80;;